Time;durP1;ratioP1;P1;durP2;ratioP2;P2;SDS_P1;SDS_P2;PMS_P1;PMS_P2;Temp;Humidity;BMP_temperature;BMP_pressure;BME280_temperature;BME280_humidity;BME280_pressure;Samples;Min_cycle;Max_cycle;Signal;HPM_P1;HPM_P2
2023/10/21 00:07:46;;;;;;;;;;;13.60;99.90;;;;;;6703749;88;20059;-78
2023/10/21 00:17:46;;;;;;;;;;;13.60;99.90;;;;;;6706868;88;20063;-77
2023/10/21 00:27:48;;;;;;;;;;;13.50;99.90;;;;;;6708501;88;20484;-78
2023/10/21 00:37:48;;;;;;;;;;;13.40;99.90;;;;;;6706316;88;20054;-78
2023/10/21 00:47:50;;;;;;;;;;;13.20;99.90;;;;;;6705526;88;20470;-80
2023/10/21 00:57:50;;;;;;;;;;;13.20;99.90;;;;;;6705146;88;20368;-80
2023/10/21 01:07:51;;;;;;;;;;;13.20;99.90;;;;;;6704644;88;22872;-79
2023/10/21 01:17:51;;;;;;;;;;;13.20;99.90;;;;;;6714338;88;20167;-80
2023/10/21 01:27:54;;;;;;;;;;;13.20;99.90;;;;;;6688298;88;20110;-80
2023/10/21 01:37:55;;;;;;;;;;;13.20;99.90;;;;;;6693299;88;20075;-79
2023/10/21 01:48:05;;;;;;;;;;;13.20;99.90;;;;;;6713276;88;20190;-80
2023/10/21 01:58:05;;;;;;;;;;;13.10;99.90;;;;;;6707977;88;20067;-80
2023/10/21 02:08:06;;;;;;;;;;;13.20;99.90;;;;;;6701742;88;20080;-79
2023/10/21 02:18:06;;;;;;;;;;;13.10;99.90;;;;;;6702638;88;20119;-79
2023/10/21 02:28:07;;;;;;;;;;;13.10;99.90;;;;;;6704064;88;20068;-79
2023/10/21 02:38:07;;;;;;;;;;;13.10;99.90;;;;;;6704208;88;20604;-79
2023/10/21 02:48:08;;;;;;;;;;;13.10;99.90;;;;;;6703031;88;20086;-79
2023/10/21 02:58:09;;;;;;;;;;;13.10;99.90;;;;;;6700815;88;20129;-78
2023/10/21 03:08:09;;;;;;;;;;;13.20;99.90;;;;;;6701918;88;20055;-78
2023/10/21 03:18:10;;;;;;;;;;;13.20;99.90;;;;;;6702532;88;20484;-78
2023/10/21 03:28:10;;;;;;;;;;;13.20;99.90;;;;;;6701917;88;20047;-78
2023/10/21 03:38:11;;;;;;;;;;;13.20;99.90;;;;;;6715529;88;20051;-78
2023/10/21 03:48:11;;;;;;;;;;;13.20;99.90;;;;;;6701402;88;20067;-78
2023/10/21 03:58:12;;;;;;;;;;;13.30;99.90;;;;;;6702480;88;20512;-79
2023/10/21 04:08:12;;;;;;;;;;;13.30;99.90;;;;;;6702484;88;20067;-79
2023/10/21 04:18:14;;;;;;;;;;;13.50;99.90;;;;;;6698346;88;20630;-78
2023/10/21 04:28:15;;;;;;;;;;;13.40;99.90;;;;;;6702390;88;20503;-78
2023/10/21 04:38:15;;;;;;;;;;;13.40;99.90;;;;;;6705791;88;20073;-78
2023/10/21 04:48:16;;;;;;;;;;;13.30;99.90;;;;;;6706574;88;20055;-78
2023/10/21 04:58:16;;;;;;;;;;;13.30;99.90;;;;;;6702510;88;20066;-78
2023/10/21 05:08:17;;;;;;;;;;;13.20;99.90;;;;;;6702709;88;20187;-78
2023/10/21 05:18:17;;;;;;;;;;;13.10;99.90;;;;;;6702945;88;20180;-78
2023/10/21 05:28:18;;;;;;;;;;;13.10;99.90;;;;;;6698775;88;20117;-78
2023/10/21 05:38:19;;;;;;;;;;;13.00;99.90;;;;;;6702841;88;20068;-79
2023/10/21 05:48:19;;;;;;;;;;;13.10;99.90;;;;;;6697265;88;20215;-78
2023/10/21 05:58:20;;;;;;;;;;;13.00;99.90;;;;;;6705192;88;20101;-77
2023/10/21 06:08:21;;;;;;;;;;;13.00;99.90;;;;;;6710111;88;20071;-78
2023/10/21 06:18:21;;;;;;;;;;;12.90;99.90;;;;;;6708298;88;20091;-78
2023/10/21 06:28:22;;;;;;;;;;;13.00;99.90;;;;;;6711389;88;20612;-78
2023/10/21 06:38:23;;;;;;;;;;;13.40;99.90;;;;;;6709461;88;20195;-78
2023/10/21 06:59:05;;;;;;;;;;;13.30;99.90;;;;;;6710461;88;20101;-78
2023/10/21 07:09:06;;;;;;;;;;;13.50;99.90;;;;;;6701500;88;20152;-77
2023/10/21 07:19:07;;;;;;;;;;;13.50;99.90;;;;;;6695911;88;20230;-76
2023/10/21 07:29:08;;;;;;;;;;;13.40;99.90;;;;;;6688019;88;20600;-77
2023/10/21 07:39:08;;;;;;;;;;;13.50;99.90;;;;;;6704415;88;20294;-77
2023/10/21 07:49:09;;;;;;;;;;;13.60;99.90;;;;;;6685562;88;20060;-77
2023/10/21 07:59:11;;;;;;;;;;;13.50;99.90;;;;;;6696937;88;20060;-77
2023/10/21 08:09:14;;;;;;;;;;;13.50;99.90;;;;;;6701817;88;20076;-80
2023/10/21 08:19:14;;;;;;;;;;;13.40;99.90;;;;;;6704110;88;20067;-79
2023/10/21 08:29:15;;;;;;;;;;;13.70;99.90;;;;;;6706832;88;20060;-78
2023/10/21 08:39:15;;;;;;;;;;;13.80;99.90;;;;;;6685424;88;20056;-77
2023/10/21 08:49:18;;;;;;;;;;;13.90;99.90;;;;;;6683132;88;20543;-77
2023/10/21 08:59:19;;;;;;;;;;;14.10;99.90;;;;;;6682511;88;20212;-77
2023/10/21 09:09:21;;;;;;;;;;;14.30;99.90;;;;;;6689966;88;20091;-76
2023/10/21 09:19:24;;;;;;;;;;;14.50;99.90;;;;;;6690071;88;20073;-77
2023/10/21 09:29:24;;;;;;;;;;;15.40;99.90;;;;;;6701827;88;20077;-77
2023/10/21 09:39:30;;;;;;;;;;;16.20;99.90;;;;;;6692357;88;20496;-79
2023/10/21 09:49:34;;;;;;;;;;;17.30;99.90;;;;;;6685873;88;20056;-78
2023/10/21 09:59:35;;;;;;;;;;;17.50;99.90;;;;;;6698888;88;20093;-77
2023/10/21 10:09:37;;;;;;;;;;;17.50;99.90;;;;;;6696226;88;20103;-77
2023/10/21 10:19:42;;;;;;;;;;;17.50;99.90;;;;;;6696756;88;20152;-76
2023/10/21 10:29:42;;;;;;;;;;;17.70;99.90;;;;;;6681571;88;20105;-77
2023/10/21 10:39:43;;;;;;;;;;;18.00;99.90;;;;;;6710343;88;20093;-77
2023/10/21 10:49:53;;;;;;;;;;;18.30;99.90;;;;;;6707441;88;20079;-78
2023/10/21 10:59:53;;;;;;;;;;;18.20;99.90;;;;;;6687837;88;20044;-78
2023/10/21 11:10:00;;;;;;;;;;;18.50;99.90;;;;;;6687314;88;20078;-79
2023/10/21 11:20:00;;;;;;;;;;;18.60;99.90;;;;;;6690249;88;20147;-79
2023/10/21 11:30:07;;;;;;;;;;;18.70;99.90;;;;;;6690933;88;20092;-78
2023/10/21 11:40:10;;;;;;;;;;;18.60;99.90;;;;;;6694060;88;20598;-78
2023/10/21 11:50:10;;;;;;;;;;;18.30;99.90;;;;;;6685847;88;20110;-79
2023/10/21 12:20:51;;;;;;;;;;;18.50;99.90;;;;;;6694033;88;20074;-78
2023/10/21 12:51:16;;;;;;;;;;;19.40;99.90;;;;;;6707605;77;20067;-79
2023/10/21 13:01:19;;;;;;;;;;;18.70;99.90;;;;;;6698965;88;20062;-79
2023/10/21 13:11:20;;;;;;;;;;;18.40;99.90;;;;;;6706187;88;20076;-77
2023/10/21 13:21:21;;;;;;;;;;;18.70;99.90;;;;;;6699767;88;20148;-78
2023/10/21 13:31:21;;;;;;;;;;;19.60;99.90;;;;;;6700848;88;20073;-78
2023/10/21 13:41:22;;;;;;;;;;;19.70;99.90;;;;;;6698371;88;20082;-77
2023/10/21 13:51:23;;;;;;;;;;;19.00;99.90;;;;;;6692114;88;20140;-79
2023/10/21 14:01:24;;;;;;;;;;;19.20;99.90;;;;;;6698405;88;20079;-79
2023/10/21 14:11:24;;;;;;;;;;;19.50;99.90;;;;;;6697631;88;20131;-78
2023/10/21 14:21:25;;;;;;;;;;;18.80;99.90;;;;;;6703468;88;20244;-77
2023/10/21 14:31:31;;;;;;;;;;;18.80;99.90;;;;;;6699426;88;20063;-82
2023/10/21 14:41:33;;;;;;;;;;;18.30;99.90;;;;;;6704834;88;20127;-79
2023/10/21 14:51:33;;;;;;;;;;;18.00;99.90;;;;;;6698484;88;20073;-78
2023/10/21 15:01:34;;;;;;;;;;;17.80;99.90;;;;;;6704874;88;20051;-79
2023/10/21 15:11:35;;;;;;;;;;;17.70;99.90;;;;;;6700810;88;20106;-80
2023/10/21 15:21:35;;;;;;;;;;;17.40;99.90;;;;;;6700792;88;20064;-80
2023/10/21 15:31:35;;;;;;;;;;;17.40;99.90;;;;;;6697428;88;20449;-79
2023/10/21 15:41:36;;;;;;;;;;;17.00;99.90;;;;;;6699081;88;20069;-80
2023/10/21 15:51:37;;;;;;;;;;;16.80;99.90;;;;;;6706023;88;20085;-79
2023/10/21 16:01:38;;;;;;;;;;;16.80;99.90;;;;;;6705294;88;20196;-80
2023/10/21 16:11:38;;;;;;;;;;;16.20;99.90;;;;;;6706434;88;20087;-81
2023/10/21 16:21:40;;;;;;;;;;;15.90;99.90;;;;;;6706876;88;20056;-79
2023/10/21 16:31:41;;;;;;;;;;;15.70;99.90;;;;;;6711686;88;20071;-83
2023/10/21 16:41:41;;;;;;;;;;;15.40;99.90;;;;;;6706855;88;20065;-81
2023/10/21 16:51:42;;;;;;;;;;;15.20;99.90;;;;;;6700441;88;20055;-78
2023/10/21 17:01:42;;;;;;;;;;;14.90;99.90;;;;;;6708378;88;20080;-80
2023/10/21 17:11:43;;;;;;;;;;;14.80;99.90;;;;;;6707982;88;20059;-79
2023/10/21 17:21:43;;;;;;;;;;;14.60;99.90;;;;;;6705599;88;20071;-79
2023/10/21 17:31:44;;;;;;;;;;;14.50;99.90;;;;;;6706977;88;20077;-81
2023/10/21 17:41:44;;;;;;;;;;;14.50;99.90;;;;;;6710927;88;20139;-79
2023/10/21 17:51:48;;;;;;;;;;;14.30;99.90;;;;;;6710529;88;20129;-79
2023/10/21 18:01:48;;;;;;;;;;;14.20;99.90;;;;;;6698903;88;20073;-79
2023/10/21 18:11:49;;;;;;;;;;;14.00;99.90;;;;;;6704041;88;20067;-80
2023/10/21 18:21:49;;;;;;;;;;;14.00;99.90;;;;;;6704091;88;20060;-80
2023/10/21 18:31:49;;;;;;;;;;;13.90;99.90;;;;;;6706660;88;20169;-80
2023/10/21 18:41:50;;;;;;;;;;;13.90;99.90;;;;;;6705683;88;20179;-79
2023/10/21 19:02:32;;;;;;;;;;;13.80;99.90;;;;;;6710041;88;20060;-78
2023/10/21 19:12:32;;;;;;;;;;;13.80;99.90;;;;;;6705897;88;20550;-78
2023/10/21 19:22:33;;;;;;;;;;;14.00;99.90;;;;;;6709617;88;20068;-80
2023/10/21 19:32:33;;;;;;;;;;;13.90;99.90;;;;;;6721147;88;20115;-81
2023/10/21 19:42:34;;;;;;;;;;;13.80;99.90;;;;;;6723316;88;20163;-80
2023/10/21 19:52:34;;;;;;;;;;;13.70;99.90;;;;;;6720090;88;20101;-80
2023/10/21 20:02:35;;;;;;;;;;;13.80;99.90;;;;;;6703616;88;20115;-79
2023/10/21 20:12:38;;;;;;;;;;;13.80;99.90;;;;;;6686815;89;20092;-80
2023/10/21 20:22:38;;;;;;;;;;;13.60;99.90;;;;;;6698049;88;20126;-79
2023/10/21 20:32:39;;;;;;;;;;;13.50;99.90;;;;;;6690281;88;20080;-78
2023/10/21 20:42:39;;;;;;;;;;;13.40;99.90;;;;;;6703218;88;20073;-79
2023/10/21 20:52:40;;;;;;;;;;;13.40;99.90;;;;;;6695572;88;20068;-79
2023/10/21 21:02:40;;;;;;;;;;;13.30;99.90;;;;;;6714067;88;20549;-79
2023/10/21 21:12:41;;;;;;;;;;;13.40;99.90;;;;;;6712350;88;20119;-79
2023/10/21 21:22:41;;;;;;;;;;;13.40;99.90;;;;;;6706703;88;20125;-80
2023/10/21 21:32:42;;;;;;;;;;;13.40;99.90;;;;;;6711863;88;20344;-77
2023/10/21 21:42:42;;;;;;;;;;;13.30;99.90;;;;;;6715747;88;20093;-78
2023/10/21 21:52:42;;;;;;;;;;;13.40;99.90;;;;;;6706810;88;20068;-77
2023/10/21 22:02:43;;;;;;;;;;;13.30;99.90;;;;;;6696414;88;20500;-78
2023/10/21 22:12:44;;;;;;;;;;;13.40;99.90;;;;;;6698558;88;20145;-80
2023/10/21 22:22:45;;;;;;;;;;;13.20;99.90;;;;;;6703831;88;20520;-80
2023/10/21 22:32:46;;;;;;;;;;;13.40;99.90;;;;;;6704089;89;20044;-79
2023/10/21 22:42:46;;;;;;;;;;;13.80;99.90;;;;;;6697978;89;20073;-80
2023/10/21 22:52:47;;;;;;;;;;;14.00;99.90;;;;;;6700036;88;20055;-80
2023/10/21 23:02:47;;;;;;;;;;;14.10;99.90;;;;;;6717694;88;20181;-80
2023/10/21 23:12:48;;;;;;;;;;;13.80;99.90;;;;;;6723105;88;20055;-79
2023/10/21 23:22:49;;;;;;;;;;;14.10;99.90;;;;;;6714851;88;20063;-78
2023/10/21 23:32:49;;;;;;;;;;;14.20;99.90;;;;;;6721087;88;20052;-80
2023/10/21 23:42:50;;;;;;;;;;;14.10;99.90;;;;;;6725011;88;20701;-79
2023/10/21 23:52:54;;;;;;;;;;;14.30;99.90;;;;;;6726237;88;20063;-80
